createdAt,value
2022-10-05T00:01:52.588Z,8.10
2022-10-05T00:04:24.494Z,8.02
2022-10-05T00:06:58.080Z,8.02
2022-10-05T00:09:24.891Z,8.07
2022-10-05T00:11:51.902Z,8.00
2022-10-05T00:14:22.214Z,7.90
2022-10-05T00:16:49.988Z,7.95
2022-10-05T00:19:34.172Z,7.79
2022-10-05T00:22:15.417Z,7.68
2022-10-05T00:24:42.642Z,7.62
2022-10-05T00:27:21.010Z,7.62
2022-10-05T00:29:50.019Z,7.70
2022-10-05T00:32:17.681Z,7.76
2022-10-05T00:34:45.733Z,7.74
2022-10-05T00:37:13.992Z,7.66
2022-10-05T00:39:42.205Z,7.51
2022-10-05T00:42:18.026Z,7.50
2022-10-05T00:44:59.166Z,7.42
2022-10-05T00:47:53.468Z,7.56
2022-10-05T00:50:28.367Z,7.46
2022-10-05T00:53:22.482Z,7.42
2022-10-05T00:56:11.934Z,7.45
2022-10-05T00:59:17.587Z,7.33
2022-10-05T01:01:57.822Z,7.31
2022-10-05T01:04:30.236Z,7.22
2022-10-05T01:07:18.658Z,7.20
2022-10-05T01:10:10.543Z,7.21
2022-10-05T01:12:43.622Z,7.29
2022-10-05T01:15:16.080Z,7.24
2022-10-05T01:18:18.699Z,7.33
2022-10-05T01:21:19.555Z,7.23
2022-10-05T01:24:02.302Z,7.20
2022-10-05T01:26:50.025Z,7.14
2022-10-05T01:29:24.341Z,7.11
2022-10-05T01:32:03.961Z,7.20
2022-10-05T01:35:02.959Z,7.28
2022-10-05T01:37:38.473Z,7.16
2022-10-05T01:40:47.796Z,6.99
2022-10-05T01:43:40.845Z,7.05
2022-10-05T01:46:07.809Z,7.13
2022-10-05T01:48:43.705Z,7.13
2022-10-05T01:51:37.933Z,7.05
2022-10-05T01:54:47.539Z,6.98
2022-10-05T01:57:44.099Z,7.02
2022-10-05T02:00:14.453Z,6.89
2022-10-05T02:02:52.596Z,6.83
2022-10-05T02:05:38.306Z,6.78
2022-10-05T02:08:18.607Z,6.82
2022-10-05T02:11:07.487Z,6.80
2022-10-05T02:13:44.750Z,6.77
2022-10-05T02:16:20.778Z,6.83
2022-10-05T02:18:54.917Z,6.94
2022-10-05T02:21:21.950Z,6.87
2022-10-05T02:23:53.491Z,6.82
2022-10-05T02:26:22.073Z,6.84
2022-10-05T02:29:00.037Z,6.94
2022-10-05T02:31:38.046Z,6.96
2022-10-05T02:34:28.342Z,6.85
2022-10-05T02:37:27.621Z,6.93
2022-10-05T02:40:40.137Z,6.86
2022-10-05T02:43:26.191Z,6.77
2022-10-05T02:46:05.768Z,6.72
2022-10-05T02:48:50.865Z,6.69
2022-10-05T02:51:34.880Z,6.70
2022-10-05T02:54:16.992Z,6.74
2022-10-05T02:57:08.069Z,6.65
2022-10-05T02:59:40.578Z,6.65
2022-10-05T03:02:29.559Z,6.68
2022-10-05T03:05:41.894Z,6.65
2022-10-05T03:08:28.540Z,6.70
2022-10-05T03:11:10.300Z,6.79
2022-10-05T03:13:42.753Z,6.65
2022-10-05T03:16:29.518Z,6.55
2022-10-05T03:19:10.282Z,6.51
2022-10-05T03:22:01.760Z,6.57
2022-10-05T03:24:41.084Z,6.62
2022-10-05T03:27:19.958Z,6.47
2022-10-05T03:30:16.582Z,6.52
2022-10-05T03:32:49.480Z,6.47
2022-10-05T03:35:28.358Z,6.43
2022-10-05T03:38:10.205Z,6.45
2022-10-05T03:41:01.532Z,6.46
2022-10-05T03:43:54.672Z,6.42
2022-10-05T03:46:45.541Z,6.35
2022-10-05T03:49:46.840Z,6.27
2022-10-05T03:52:23.208Z,6.28
2022-10-05T03:55:01.423Z,6.36
2022-10-05T03:57:33.289Z,6.26
2022-10-05T04:00:17.481Z,6.13
2022-10-05T04:02:51.151Z,6.30
2022-10-05T04:05:25.064Z,6.20
2022-10-05T04:08:00.187Z,6.19
2022-10-05T04:10:59.791Z,6.04
2022-10-05T04:13:44.378Z,6.06
2022-10-05T04:16:11.363Z,6.04
2022-10-05T04:18:46.101Z,6.08
2022-10-05T04:21:31.403Z,6.17
2022-10-05T04:24:34.246Z,6.10
2022-10-05T04:27:11.032Z,6.01
2022-10-05T04:29:58.336Z,5.93
2022-10-05T04:32:35.434Z,6.02
2022-10-05T04:35:05.136Z,5.92
2022-10-05T04:38:11.548Z,5.96
2022-10-05T04:40:41.205Z,6.01
2022-10-05T04:43:34.714Z,6.02
2022-10-05T04:46:13.608Z,6.05
2022-10-05T04:48:55.753Z,6.03
2022-10-05T04:51:47.682Z,6.06
2022-10-05T04:54:37.263Z,6.13
2022-10-05T04:57:11.048Z,6.13
2022-10-05T04:59:53.120Z,6.08
2022-10-05T05:02:44.778Z,6.16
2022-10-05T05:05:14.744Z,6.15
2022-10-05T05:07:59.681Z,6.17
2022-10-05T05:10:49.958Z,6.25
2022-10-05T05:13:47.742Z,6.22
2022-10-05T05:16:44.678Z,6.15
2022-10-05T05:19:23.814Z,6.16
2022-10-05T05:22:22.163Z,6.20
2022-10-05T05:25:17.228Z,6.24
2022-10-05T05:27:54.869Z,6.21
2022-10-05T05:30:43.863Z,6.39
2022-10-05T05:33:28.717Z,6.39
2022-10-05T05:36:07.870Z,6.49
2022-10-05T05:38:51.388Z,6.64
2022-10-05T05:41:36.866Z,6.65
2022-10-05T05:44:06.539Z,6.63
2022-10-05T05:47:02.329Z,6.68
2022-10-05T05:49:44.030Z,6.86
2022-10-05T05:52:18.324Z,6.93
2022-10-05T05:55:14.222Z,7.05
2022-10-05T05:57:44.464Z,7.15
2022-10-05T06:00:14.490Z,7.17
2022-10-05T06:03:09.560Z,7.23
2022-10-05T06:05:50.391Z,7.31
2022-10-05T06:08:35.948Z,7.40
2022-10-05T06:11:11.666Z,7.42
2022-10-05T06:13:42.760Z,7.55
2022-10-05T06:16:22.077Z,7.60
2022-10-05T06:19:03.867Z,7.62
2022-10-05T06:21:55.688Z,7.74
2022-10-05T06:24:34.472Z,7.87
2022-10-05T06:27:03.958Z,8.00
2022-10-05T06:30:04.787Z,8.11
2022-10-05T06:32:34.101Z,8.24
2022-10-05T06:35:18.352Z,8.24
2022-10-05T06:38:15.979Z,8.34
2022-10-05T06:40:55.267Z,8.39
2022-10-05T06:43:43.514Z,8.45
2022-10-05T06:46:42.790Z,8.63
2022-10-05T06:49:41.720Z,8.66
2022-10-05T06:52:36.173Z,8.79
2022-10-05T06:55:15.057Z,8.98
2022-10-05T06:57:59.925Z,9.08
2022-10-05T07:00:35.619Z,9.23
2022-10-05T07:03:12.149Z,9.41
2022-10-05T07:05:57.000Z,9.57
2022-10-05T07:08:35.773Z,9.67
2022-10-05T07:11:05.079Z,9.75
2022-10-05T07:14:01.852Z,9.82
2022-10-05T07:16:45.491Z,9.91
2022-10-05T07:19:41.306Z,9.91
2022-10-05T07:22:20.249Z,10.03
2022-10-05T07:25:00.443Z,10.23
2022-10-05T07:27:50.909Z,10.41
2022-10-05T07:30:19.273Z,10.59
2022-10-05T07:33:18.982Z,10.81
2022-10-05T07:36:22.823Z,11.00
2022-10-05T07:39:02.641Z,11.23
2022-10-05T07:41:52.983Z,11.41
2022-10-05T07:44:31.019Z,11.65
2022-10-05T07:47:19.425Z,11.85
2022-10-05T07:49:59.694Z,11.98
2022-10-05T07:52:35.588Z,12.13
2022-10-05T07:55:17.057Z,12.49
2022-10-05T07:57:55.891Z,12.77
2022-10-05T08:00:43.243Z,12.90
2022-10-05T08:03:18.833Z,13.11
2022-10-05T08:05:47.038Z,13.28
2022-10-05T08:08:32.896Z,13.42
2022-10-05T08:11:10.532Z,13.60
2022-10-05T08:13:53.303Z,13.62
2022-10-05T08:16:23.283Z,13.89
2022-10-05T08:18:50.061Z,13.94
2022-10-05T08:21:23.671Z,14.25
2022-10-05T08:23:59.272Z,14.43
2022-10-05T08:26:55.356Z,14.30
2022-10-05T08:29:47.380Z,14.46
2022-10-05T08:32:25.727Z,14.90
2022-10-05T08:35:02.104Z,14.99
2022-10-05T08:37:37.284Z,15.18
2022-10-05T08:40:45.866Z,15.22
2022-10-05T08:43:35.136Z,15.66
2022-10-05T08:46:14.193Z,15.88
2022-10-05T08:49:12.299Z,16.04
2022-10-05T08:51:51.244Z,16.11
2022-10-05T08:54:39.485Z,15.66
2022-10-05T08:57:18.571Z,15.78
2022-10-05T08:59:45.271Z,15.83
2022-10-05T09:02:37.146Z,15.59
2022-10-05T09:05:25.980Z,16.15
2022-10-05T09:08:04.698Z,16.60
2022-10-05T09:10:53.447Z,16.68
2022-10-05T09:13:33.569Z,16.34
2022-10-05T09:16:12.084Z,16.11
2022-10-05T09:18:50.998Z,16.50
2022-10-05T09:21:29.729Z,16.22
2022-10-05T09:24:16.679Z,16.56
2022-10-05T09:27:02.373Z,16.85
2022-10-05T09:30:06.388Z,16.87
2022-10-05T09:32:57.857Z,16.89
2022-10-05T09:35:58.118Z,17.29
2022-10-05T09:38:46.458Z,17.95
2022-10-05T09:41:51.759Z,18.06
2022-10-05T09:44:37.072Z,17.94
2022-10-05T09:47:28.557Z,18.58
2022-10-05T09:50:07.152Z,17.78
2022-10-05T09:53:09.607Z,18.36
2022-10-05T09:55:51.251Z,18.22
2022-10-05T09:58:50.378Z,18.00
2022-10-05T10:01:47.887Z,17.55
2022-10-05T10:04:34.806Z,17.46
2022-10-05T10:07:10.281Z,18.07
2022-10-05T10:10:01.515Z,18.03
2022-10-05T10:12:46.220Z,18.71
2022-10-05T10:15:50.415Z,19.05
2022-10-05T10:18:40.700Z,19.21
2022-10-05T10:21:33.722Z,18.90
2022-10-05T10:24:14.107Z,19.27
2022-10-05T10:26:43.808Z,19.13
2022-10-05T10:32:23.657Z,18.74
2022-10-05T10:35:01.667Z,18.31
2022-10-05T10:38:16.764Z,17.74
2022-10-05T10:41:14.111Z,17.30
2022-10-05T10:44:23.895Z,17.16
2022-10-05T10:47:21.068Z,17.05
2022-10-05T10:50:09.776Z,17.30
2022-10-05T10:53:14.886Z,18.20
2022-10-05T10:56:17.697Z,18.76
2022-10-05T10:58:59.393Z,18.40
2022-10-05T11:01:34.490Z,18.57
2022-10-05T11:04:22.975Z,18.54
2022-10-05T11:07:02.385Z,19.11
2022-10-05T11:10:00.716Z,19.40
2022-10-05T11:13:14.568Z,19.18
2022-10-05T11:15:47.739Z,19.27
2022-10-05T11:18:32.536Z,19.55
2022-10-05T11:21:36.581Z,19.79
2022-10-05T11:24:22.807Z,19.44
2022-10-05T11:27:08.383Z,19.54
2022-10-05T11:29:41.560Z,20.17
2022-10-05T11:32:27.655Z,20.09
2022-10-05T11:35:24.549Z,19.39
2022-10-05T11:38:11.476Z,19.68
2022-10-05T11:41:02.190Z,19.37
2022-10-05T11:43:53.070Z,19.31
2022-10-05T11:46:35.259Z,19.99
2022-10-05T11:49:25.950Z,20.08
2022-10-05T11:52:13.688Z,20.77
2022-10-05T11:55:09.112Z,20.86
2022-10-05T11:57:37.881Z,20.71
2022-10-05T12:00:12.148Z,20.56
2022-10-05T12:02:48.058Z,20.45
2022-10-05T12:05:22.845Z,20.34
2022-10-05T12:08:08.681Z,20.92
2022-10-05T12:10:41.313Z,20.59
2022-10-05T12:13:19.852Z,20.86
2022-10-05T12:16:04.671Z,20.35
2022-10-05T12:18:31.617Z,20.23
2022-10-05T12:21:23.568Z,20.18
2022-10-05T12:23:58.313Z,19.83
2022-10-05T12:26:34.100Z,20.17
2022-10-05T12:29:26.771Z,19.92
2022-10-05T12:31:56.489Z,19.62
2022-10-05T12:35:01.021Z,19.08
2022-10-05T12:37:53.566Z,19.32
2022-10-05T12:40:26.456Z,19.30
2022-10-05T12:43:20.922Z,19.37
2022-10-05T12:46:09.856Z,19.06
2022-10-05T12:48:58.189Z,19.36
2022-10-05T12:51:47.100Z,19.57
2022-10-05T12:54:24.763Z,19.56
2022-10-05T12:57:15.948Z,19.31
2022-10-05T12:59:54.073Z,18.79
2022-10-05T13:02:30.433Z,19.14
2022-10-05T13:05:14.123Z,18.65
2022-10-05T13:07:59.673Z,18.62
2022-10-05T13:10:41.991Z,18.77
2022-10-05T13:13:33.620Z,18.59
2022-10-05T13:16:28.357Z,18.67
2022-10-05T13:19:11.056Z,18.90
2022-10-05T13:21:47.610Z,18.81
2022-10-05T13:24:29.135Z,18.96
2022-10-05T13:27:08.530Z,18.65
2022-10-05T13:29:48.160Z,18.73
2022-10-05T13:32:27.307Z,18.93
2022-10-05T13:34:56.894Z,19.14
2022-10-05T13:37:29.365Z,19.01
2022-10-05T13:39:59.244Z,18.97
2022-10-05T13:42:48.433Z,18.68
2022-10-05T13:45:35.997Z,18.96
2022-10-05T13:48:24.543Z,18.90
2022-10-05T13:51:06.457Z,18.67
2022-10-05T13:54:10.833Z,18.79
2022-10-05T13:56:45.309Z,18.92
2022-10-05T13:59:17.801Z,18.98
2022-10-05T14:02:10.891Z,18.75
2022-10-05T14:04:49.628Z,18.80
2022-10-05T14:07:31.769Z,18.81
2022-10-05T14:10:02.055Z,18.60
2022-10-05T14:12:36.552Z,18.30
2022-10-05T14:15:20.339Z,18.43
2022-10-05T14:17:47.322Z,18.21
2022-10-05T14:20:21.749Z,18.30
2022-10-05T14:22:54.490Z,18.33
2022-10-05T14:25:21.602Z,18.32
2022-10-05T14:28:24.877Z,18.47
2022-10-05T14:31:26.631Z,18.55
2022-10-05T14:33:53.517Z,18.26
2022-10-05T14:36:40.119Z,18.33
2022-10-05T14:39:12.935Z,18.29
2022-10-05T14:41:49.167Z,18.28
2022-10-05T14:44:16.180Z,18.24
2022-10-05T14:47:11.932Z,18.31
2022-10-05T14:50:15.405Z,18.21
2022-10-05T14:53:11.572Z,18.25
2022-10-05T14:56:09.064Z,18.04
2022-10-05T14:58:56.278Z,17.74
2022-10-05T15:01:31.035Z,17.73
2022-10-05T15:04:13.179Z,17.51
2022-10-05T15:06:44.309Z,17.50
2022-10-05T15:09:35.812Z,17.36
2022-10-05T15:12:03.854Z,17.41
2022-10-05T15:14:34.848Z,17.34
2022-10-05T15:17:04.446Z,17.30
2022-10-05T15:19:50.442Z,17.31
2022-10-05T15:22:41.263Z,17.32
2022-10-05T15:25:28.154Z,17.19
2022-10-05T15:28:18.812Z,17.20
2022-10-05T15:31:01.324Z,17.10
2022-10-05T15:33:39.319Z,17.02
2022-10-05T15:36:06.405Z,16.91
2022-10-05T15:39:00.204Z,16.81
2022-10-05T15:41:35.738Z,16.87
2022-10-05T15:44:34.250Z,16.84
2022-10-05T15:47:13.908Z,16.83
2022-10-05T15:49:52.667Z,16.79
2022-10-05T15:52:25.476Z,16.76
2022-10-05T15:55:13.864Z,16.69
2022-10-05T15:57:59.654Z,16.69
2022-10-05T16:00:28.142Z,16.52
2022-10-05T16:03:19.808Z,16.52
2022-10-05T16:06:24.048Z,16.48
2022-10-05T16:09:03.401Z,16.32
2022-10-05T16:11:33.095Z,16.24
2022-10-05T16:14:08.465Z,16.22
2022-10-05T16:16:53.468Z,16.15
2022-10-05T16:19:42.455Z,16.08
2022-10-05T16:22:37.850Z,15.92
2022-10-05T16:25:25.143Z,15.82
2022-10-05T16:28:12.524Z,15.81
2022-10-05T16:31:02.722Z,15.73
2022-10-05T16:33:54.446Z,15.68
2022-10-05T16:36:44.469Z,15.61
2022-10-05T16:39:11.193Z,15.52
2022-10-05T16:41:48.001Z,15.66
2022-10-05T16:44:53.330Z,15.62
2022-10-05T16:47:58.069Z,15.57
2022-10-05T16:50:24.713Z,15.52
2022-10-05T16:53:15.265Z,15.52
2022-10-05T16:55:49.076Z,15.49
2022-10-05T16:58:23.829Z,15.36
2022-10-05T17:01:16.716Z,15.25
2022-10-05T17:04:03.717Z,15.11
2022-10-05T17:06:30.389Z,15.14
2022-10-05T17:09:17.696Z,15.02
2022-10-05T17:11:47.371Z,15.19
2022-10-05T17:14:36.292Z,15.02
2022-10-05T17:17:46.994Z,14.89
2022-10-05T17:21:00.996Z,14.94
2022-10-05T17:23:54.241Z,14.84
2022-10-05T17:26:45.164Z,14.89
2022-10-05T17:29:51.401Z,14.76
2022-10-05T17:32:18.307Z,14.65
2022-10-05T17:35:04.161Z,14.67
2022-10-05T17:37:54.035Z,14.55
2022-10-05T17:40:29.607Z,14.46
2022-10-05T17:43:04.622Z,14.44
2022-10-05T17:45:34.478Z,14.36
2022-10-05T17:48:01.390Z,14.34
2022-10-05T17:51:09.908Z,14.32
2022-10-05T17:54:04.331Z,14.23
2022-10-05T17:56:32.069Z,14.13
2022-10-05T17:59:02.213Z,14.10
2022-10-05T18:01:35.029Z,14.03
2022-10-05T18:04:13.897Z,13.92
2022-10-05T18:06:47.605Z,13.89
2022-10-05T18:09:17.461Z,13.83
2022-10-05T18:11:49.247Z,13.75
2022-10-05T18:14:24.895Z,13.72
2022-10-05T18:17:03.246Z,13.85
2022-10-05T18:19:32.459Z,13.81
2022-10-05T18:22:03.422Z,13.89
2022-10-05T18:24:53.049Z,13.74
2022-10-05T18:27:34.514Z,13.87
2022-10-05T18:30:14.378Z,13.82
2022-10-05T18:33:00.123Z,13.61
2022-10-05T18:35:42.913Z,13.64
2022-10-05T18:38:34.299Z,13.53
2022-10-05T18:41:17.357Z,13.41
2022-10-05T18:44:24.505Z,13.35
2022-10-05T18:47:12.473Z,13.30
2022-10-05T18:49:49.596Z,13.17
2022-10-05T18:52:50.204Z,13.12
2022-10-05T18:55:26.039Z,13.10
2022-10-05T18:58:21.074Z,12.98
2022-10-05T19:01:09.855Z,13.00
2022-10-05T19:03:39.408Z,12.80
2022-10-05T19:06:37.508Z,12.78
2022-10-05T19:09:13.205Z,12.59
2022-10-05T19:11:55.761Z,12.47
2022-10-05T19:14:45.822Z,12.51
2022-10-05T19:17:45.168Z,12.43
2022-10-05T19:20:23.765Z,12.41
2022-10-05T19:22:59.689Z,12.33
2022-10-05T19:25:29.462Z,12.20
2022-10-05T19:28:07.813Z,12.20
2022-10-05T19:30:55.585Z,12.11
2022-10-05T19:33:32.379Z,12.06
2022-10-05T19:36:02.084Z,11.94
2022-10-05T19:39:08.227Z,11.96
2022-10-05T19:41:47.953Z,11.90
2022-10-05T19:44:35.275Z,11.86
2022-10-05T19:47:14.893Z,11.78
2022-10-05T19:49:50.564Z,11.76
2022-10-05T19:52:31.158Z,11.89
2022-10-05T19:55:11.028Z,11.75
2022-10-05T19:57:49.206Z,11.72
2022-10-05T20:00:24.679Z,11.66
2022-10-05T20:03:07.708Z,11.57
2022-10-05T20:05:34.967Z,11.49
2022-10-05T20:08:01.710Z,11.59
2022-10-05T20:10:30.750Z,11.56
2022-10-05T20:13:02.996Z,11.45
2022-10-05T20:15:52.063Z,11.51
2022-10-05T20:19:03.114Z,11.32
2022-10-05T20:21:39.360Z,11.28
2022-10-05T20:24:13.653Z,11.23
2022-10-05T20:27:06.614Z,11.22
2022-10-05T20:29:39.207Z,11.24
2022-10-05T20:32:08.880Z,11.31
2022-10-05T20:34:37.643Z,11.29
2022-10-05T20:37:04.427Z,11.20
2022-10-05T20:39:31.539Z,11.20
2022-10-05T20:41:58.895Z,11.08
2022-10-05T20:44:26.706Z,11.18
2022-10-05T20:46:55.681Z,11.08
2022-10-05T20:49:24.512Z,11.12
2022-10-05T20:51:51.589Z,11.08
2022-10-05T20:54:19.037Z,11.06
2022-10-05T20:56:47.087Z,11.03
2022-10-05T20:59:14.526Z,10.89
2022-10-05T21:01:46.297Z,10.93
2022-10-05T21:04:41.007Z,10.95
2022-10-05T21:07:08.485Z,10.86
2022-10-05T21:09:38.338Z,10.86
2022-10-05T21:12:05.443Z,10.93
2022-10-05T21:14:34.486Z,10.86
2022-10-05T21:17:02.267Z,10.86
2022-10-05T21:19:29.942Z,10.90
2022-10-05T21:21:59.890Z,10.75
2022-10-05T21:24:26.897Z,10.78
2022-10-05T21:26:57.663Z,10.66
2022-10-05T21:29:24.453Z,10.58
2022-10-05T21:31:54.500Z,10.58
2022-10-05T21:34:21.291Z,10.50
2022-10-05T21:36:48.074Z,10.51
2022-10-05T21:39:15.026Z,10.52
2022-10-05T21:41:41.743Z,10.58
2022-10-05T21:44:08.510Z,10.55
2022-10-05T21:46:36.965Z,10.37
2022-10-05T21:49:08.530Z,10.37
2022-10-05T21:51:36.649Z,10.34
2022-10-05T21:54:09.141Z,10.35
2022-10-05T21:56:40.224Z,10.32
2022-10-05T21:59:10.051Z,10.38
2022-10-05T22:01:37.330Z,10.31
2022-10-05T22:04:05.452Z,10.37
2022-10-05T22:06:33.148Z,10.31
2022-10-05T22:09:00.200Z,10.26
2022-10-05T22:11:28.988Z,10.28
2022-10-05T22:14:02.141Z,10.25
2022-10-05T22:16:32.853Z,10.23
2022-10-05T22:19:05.075Z,10.23
2022-10-05T22:21:37.797Z,10.23
2022-10-05T22:24:04.869Z,10.28
2022-10-05T22:26:31.796Z,10.27
2022-10-05T22:28:58.850Z,10.36
2022-10-05T22:31:25.679Z,10.25
2022-10-05T22:33:52.535Z,10.22
2022-10-05T22:36:20.209Z,10.26
2022-10-05T22:38:47.698Z,10.25
2022-10-05T22:41:17.127Z,10.20
2022-10-05T22:43:45.465Z,10.17
2022-10-05T22:46:13.367Z,10.14
2022-10-05T22:48:40.832Z,10.15
2022-10-05T22:51:08.792Z,10.13
2022-10-05T22:53:35.725Z,10.20
2022-10-05T22:56:13.200Z,10.10
2022-10-05T22:58:44.245Z,10.12
2022-10-05T23:01:13.906Z,10.10
2022-10-05T23:03:41.619Z,10.12
2022-10-05T23:06:11.114Z,10.19
2022-10-05T23:08:39.049Z,10.27
2022-10-05T23:11:11.547Z,10.26
2022-10-05T23:13:38.748Z,10.22
2022-10-05T23:16:17.198Z,10.33
2022-10-05T23:18:44.852Z,10.28
2022-10-05T23:21:11.824Z,10.26
2022-10-05T23:23:40.907Z,10.24
2022-10-05T23:26:10.464Z,10.25
2022-10-05T23:28:39.993Z,10.27
2022-10-05T23:31:11.426Z,10.25
2022-10-05T23:33:38.366Z,10.20
2022-10-05T23:36:12.386Z,10.23
2022-10-05T23:38:39.488Z,10.31
2022-10-05T23:41:06.700Z,10.37
2022-10-05T23:43:33.822Z,10.32
2022-10-05T23:46:01.873Z,10.34
2022-10-05T23:48:29.725Z,10.27
2022-10-05T23:50:56.904Z,10.31
2022-10-05T23:53:24.144Z,10.37
2022-10-05T23:55:53.760Z,10.42
2022-10-05T23:58:21.628Z,10.45
